Search METAR Data

METAR Data for ENHD:

ENHD 131750Z 28003KT 9999 FEW030 11/03 Q1010